createdAt,value
2022-09-01T00:01:49.548Z,1.50
2022-09-01T00:04:20.302Z,1.80
2022-09-01T00:06:48.325Z,1.60
2022-09-01T00:09:19.406Z,1.42
2022-09-01T00:11:50.829Z,1.60
2022-09-01T00:14:29.719Z,1.45
2022-09-01T00:17:02.346Z,1.60
2022-09-01T00:19:29.664Z,1.70
2022-09-01T00:21:57.468Z,1.48
2022-09-01T00:24:26.045Z,1.60
2022-09-01T00:26:54.400Z,1.60
2022-09-01T00:29:21.162Z,1.70
2022-09-01T00:31:48.218Z,1.77
2022-09-01T00:34:15.378Z,1.45
2022-09-01T00:36:42.597Z,1.40
2022-09-01T00:39:09.925Z,1.40
2022-09-01T00:41:39.530Z,2.10
2022-09-01T00:44:11.995Z,1.70
2022-09-01T00:46:49.853Z,1.80
2022-09-01T00:49:21.795Z,2.00
2022-09-01T00:51:53.092Z,1.70
2022-09-01T00:54:24.089Z,2.03
2022-09-01T00:56:57.309Z,1.85
2022-09-01T00:59:27.470Z,1.80
2022-09-01T01:01:55.246Z,1.80
2022-09-01T01:04:22.909Z,2.00
2022-09-01T01:07:02.190Z,2.10
2022-09-01T01:09:35.945Z,1.92
2022-09-01T01:12:05.159Z,1.88
2022-09-01T01:14:34.696Z,1.60
2022-09-01T01:17:01.503Z,1.75
2022-09-01T01:20:00.324Z,1.80
2022-09-01T01:22:46.030Z,2.13
2022-09-01T01:25:12.862Z,1.70
2022-09-01T01:27:43.239Z,1.90
2022-09-01T01:30:12.019Z,2.08
2022-09-01T01:32:47.739Z,2.20
2022-09-01T01:35:17.269Z,2.17
2022-09-01T01:37:49.161Z,2.08
2022-09-01T01:40:20.162Z,1.90
2022-09-01T01:42:51.211Z,1.90
2022-09-01T01:45:21.101Z,2.13
2022-09-01T01:47:55.619Z,1.90
2022-09-01T01:50:27.629Z,2.47
2022-09-01T01:52:59.972Z,2.28
2022-09-01T01:55:31.092Z,2.20
2022-09-01T01:58:00.766Z,2.43
2022-09-01T02:00:34.967Z,2.40
2022-09-01T02:03:02.857Z,2.40
2022-09-01T02:05:32.703Z,2.08
2022-09-01T02:08:07.269Z,2.05
2022-09-01T02:10:40.546Z,2.20
2022-09-01T02:13:11.895Z,2.00
2022-09-01T02:15:44.092Z,1.98
2022-09-01T02:18:18.134Z,1.92
2022-09-01T02:20:47.814Z,2.70
2022-09-01T02:23:17.930Z,2.60
2022-09-01T02:26:12.012Z,2.10
2022-09-01T02:28:37.044Z,2.30
2022-09-01T02:31:05.716Z,2.25
2022-09-01T02:33:32.977Z,2.00
2022-09-01T02:36:09.118Z,2.20
2022-09-01T02:38:35.967Z,2.30
2022-09-01T02:41:05.966Z,2.30
2022-09-01T02:43:33.681Z,2.45
2022-09-01T02:46:02.070Z,2.00
2022-09-01T02:48:37.274Z,2.33
2022-09-01T02:51:11.579Z,2.00
2022-09-01T02:53:39.292Z,2.00
2022-09-01T02:56:11.965Z,2.10
2022-09-01T02:58:45.638Z,2.30
2022-09-01T03:01:22.054Z,2.40
2022-09-01T03:03:50.890Z,2.28
2022-09-01T03:06:23.923Z,2.00
2022-09-01T03:08:55.417Z,2.00
2022-09-01T03:11:24.211Z,2.38
2022-09-01T03:13:51.765Z,2.20
2022-09-01T03:16:18.939Z,2.33
2022-09-01T03:18:46.126Z,2.20
2022-09-01T03:21:16.004Z,2.22
2022-09-01T03:23:45.393Z,2.60
2022-09-01T03:26:13.716Z,2.60
2022-09-01T03:28:41.007Z,2.60
2022-09-01T03:31:08.883Z,2.20
2022-09-01T03:33:36.668Z,1.80
2022-09-01T03:36:14.829Z,2.38
2022-09-01T03:38:43.698Z,2.40
2022-09-01T03:41:12.899Z,2.20
2022-09-01T03:43:39.626Z,2.40
2022-09-01T03:46:21.262Z,1.90
2022-09-01T03:48:50.656Z,2.40
2022-09-01T03:51:20.614Z,2.73
2022-09-01T03:53:47.544Z,2.35
2022-09-01T03:56:15.106Z,2.17
2022-09-01T03:58:46.948Z,2.58
2022-09-01T04:01:16.131Z,2.40
2022-09-01T04:03:48.585Z,2.03
2022-09-01T04:06:19.354Z,2.83
2022-09-01T04:08:47.175Z,2.58
2022-09-01T04:11:18.591Z,2.88
2022-09-01T04:13:47.237Z,2.45
2022-09-01T04:16:53.067Z,2.30
2022-09-01T04:19:26.158Z,2.20
2022-09-01T04:21:56.716Z,1.90
2022-09-01T04:24:28.182Z,2.47
2022-09-01T04:26:58.531Z,2.80
2022-09-01T04:29:29.153Z,2.50
2022-09-01T04:32:03.928Z,2.17
2022-09-01T04:34:37.238Z,2.35
2022-09-01T04:37:21.037Z,2.30
2022-09-01T04:39:57.235Z,2.33
2022-09-01T04:42:29.319Z,2.67
2022-09-01T04:44:58.103Z,2.63
2022-09-01T04:47:35.771Z,2.42
2022-09-01T04:50:13.698Z,2.60
2022-09-01T04:52:44.975Z,2.63
2022-09-01T04:55:22.055Z,3.10
2022-09-01T04:57:49.988Z,2.90
2022-09-01T05:00:22.499Z,2.70
2022-09-01T05:02:55.391Z,2.30
2022-09-01T05:05:25.083Z,2.88
2022-09-01T05:07:52.914Z,2.77
2022-09-01T05:10:23.046Z,2.53
2022-09-01T05:13:12.763Z,2.30
2022-09-01T05:15:46.545Z,2.72
2022-09-01T05:18:23.360Z,2.75
2022-09-01T05:20:52.960Z,2.67
2022-09-01T05:23:20.578Z,2.40
2022-09-01T05:25:51.165Z,2.63
2022-09-01T05:28:19.214Z,2.53
2022-09-01T05:30:47.810Z,2.55
2022-09-01T05:33:21.656Z,2.90
2022-09-01T05:35:55.859Z,2.75
2022-09-01T05:38:24.147Z,2.80
2022-09-01T05:41:18.014Z,2.83
2022-09-01T05:43:49.914Z,2.00
2022-09-01T05:46:20.887Z,2.40
2022-09-01T05:48:51.849Z,2.63
2022-09-01T05:51:43.266Z,2.05
2022-09-01T05:54:10.593Z,2.03
2022-09-01T05:56:43.619Z,2.30
2022-09-01T05:59:23.093Z,1.87
2022-09-01T06:01:53.175Z,2.17
2022-09-01T06:04:22.670Z,2.53
2022-09-01T06:07:08.544Z,2.15
2022-09-01T06:09:44.167Z,2.25
2022-09-01T06:12:17.370Z,2.23
2022-09-01T06:14:46.938Z,1.90
2022-09-01T06:17:16.759Z,2.20
2022-09-01T06:19:44.500Z,2.03
2022-09-01T06:22:11.647Z,2.10
2022-09-01T06:24:39.983Z,2.00
2022-09-01T06:27:10.804Z,2.08
2022-09-01T06:29:41.591Z,2.40
2022-09-01T06:32:12.470Z,1.70
2022-09-01T06:34:42.443Z,1.75
2022-09-01T06:37:13.400Z,1.80
2022-09-01T06:39:43.941Z,1.40
2022-09-01T06:42:12.782Z,1.42
2022-09-01T06:44:48.245Z,1.52
2022-09-01T06:47:15.686Z,1.75
2022-09-01T06:49:42.579Z,1.47
2022-09-01T06:52:16.158Z,1.77
2022-09-01T06:54:43.961Z,1.63
2022-09-01T06:59:58.300Z,1.60
2022-09-01T07:02:27.084Z,1.60
2022-09-01T07:08:09.243Z,1.73
2022-09-01T07:13:38.787Z,1.90
2022-09-01T07:18:58.807Z,1.42
2022-09-01T07:22:06.780Z,1.58
2022-09-01T07:24:18.116Z,1.77
2022-09-01T07:27:08.343Z,1.70
2022-09-01T07:29:36.483Z,1.50
2022-09-01T07:34:52.134Z,1.55
2022-09-01T07:43:27.279Z,1.67
2022-09-01T07:46:40.078Z,1.58
2022-09-01T07:51:59.747Z,1.10
2022-09-01T07:54:27.423Z,1.60
2022-09-01T07:56:55.407Z,1.40
2022-09-01T07:59:23.150Z,1.10
2022-09-01T08:01:57.878Z,1.63
2022-09-01T08:04:24.726Z,1.48
2022-09-01T08:06:51.948Z,1.38
2022-09-01T08:09:32.800Z,1.40
2022-09-01T08:12:07.543Z,1.70
2022-09-01T08:14:38.527Z,1.75
2022-09-01T08:19:53.571Z,1.40
2022-09-01T08:22:33.914Z,1.43
2022-09-01T08:25:07.728Z,1.35
2022-09-01T08:27:36.474Z,1.13
2022-09-01T08:30:05.603Z,1.45
2022-09-01T08:32:33.716Z,1.30
2022-09-01T08:35:00.719Z,1.60
2022-09-01T08:37:28.069Z,1.40
2022-09-01T08:39:55.598Z,1.10
2022-09-01T08:42:40.895Z,1.40
2022-09-01T08:45:23.542Z,1.20
2022-09-01T08:48:22.396Z,1.20
2022-09-01T08:50:44.847Z,1.17
2022-09-01T08:53:45.954Z,1.20
2022-09-01T08:56:15.357Z,1.50
2022-09-01T08:58:42.296Z,1.70
2022-09-01T09:01:42.876Z,1.33
2022-09-01T09:04:26.909Z,1.63
2022-09-01T09:07:07.755Z,1.33
2022-09-01T09:09:51.117Z,1.05
2022-09-01T09:12:51.293Z,1.13
2022-09-01T09:15:27.294Z,1.13
2022-09-01T09:18:05.471Z,1.58
2022-09-01T09:20:47.902Z,1.42
2022-09-01T09:23:39.430Z,1.00
2022-09-01T09:26:08.187Z,1.10
2022-09-01T09:28:35.061Z,1.40
2022-09-01T09:31:29.465Z,1.10
2022-09-01T09:33:58.106Z,1.35
2022-09-01T09:36:36.303Z,1.20
2022-09-01T09:39:16.920Z,1.10
2022-09-01T09:42:01.702Z,1.10
2022-09-01T09:44:32.843Z,1.15
2022-09-01T09:46:59.591Z,1.00
2022-09-01T09:49:36.101Z,1.23
2022-09-01T09:52:03.416Z,1.20
2022-09-01T09:54:33.137Z,1.08
2022-09-01T09:57:08.842Z,0.98
2022-09-01T10:00:06.936Z,1.00
2022-09-01T10:02:44.755Z,1.10
2022-09-01T10:05:25.696Z,1.10
2022-09-01T10:07:53.472Z,1.40
2022-09-01T10:10:41.338Z,1.05
2022-09-01T10:13:18.013Z,1.20
2022-09-01T10:15:52.431Z,1.00
2022-09-01T10:18:30.503Z,1.10
2022-09-01T10:21:11.959Z,1.05
2022-09-01T10:23:41.419Z,1.15
2022-09-01T10:26:18.974Z,1.00
2022-09-01T10:29:23.641Z,1.00
2022-09-01T10:32:08.540Z,1.15
2022-09-01T10:34:42.055Z,0.90
2022-09-01T10:37:10.560Z,0.93
2022-09-01T10:40:10.638Z,0.90
2022-09-01T10:42:39.002Z,1.00
2022-09-01T10:45:05.987Z,1.30
2022-09-01T10:47:37.826Z,1.10
2022-09-01T10:50:35.395Z,1.17
2022-09-01T10:53:05.886Z,1.15
2022-09-01T10:55:42.181Z,0.98
2022-09-01T11:01:48.725Z,1.23
2022-09-01T11:04:58.393Z,1.20
2022-09-01T11:07:58.172Z,1.20
2022-09-01T11:10:35.379Z,1.10
2022-09-01T11:13:05.384Z,1.00
2022-09-01T11:15:36.978Z,1.08
2022-09-01T11:18:17.369Z,1.05
2022-09-01T11:20:46.688Z,0.88
2022-09-01T11:23:27.732Z,0.95
2022-09-01T11:26:35.805Z,0.98
2022-09-01T11:29:02.638Z,0.90
2022-09-01T11:31:42.007Z,1.20
2022-09-01T11:34:18.312Z,1.15
2022-09-01T11:36:47.189Z,1.00
2022-09-01T11:39:17.991Z,0.75
2022-09-01T11:42:04.566Z,0.95
2022-09-01T11:44:43.274Z,1.00
2022-09-01T11:47:17.946Z,1.00
2022-09-01T11:50:03.127Z,0.98
2022-09-01T11:52:35.713Z,0.90
2022-09-01T11:55:04.652Z,1.20
2022-09-01T11:57:34.682Z,0.80
2022-09-01T12:00:05.768Z,1.20
2022-09-01T12:02:46.942Z,1.10
2022-09-01T12:05:32.638Z,0.82
2022-09-01T12:08:02.211Z,0.90
2022-09-01T12:10:35.445Z,1.15
2022-09-01T12:13:24.394Z,1.17
2022-09-01T12:16:17.009Z,0.90
2022-09-01T12:18:52.843Z,1.08
2022-09-01T12:21:42.425Z,1.05
2022-09-01T12:24:21.958Z,1.00
2022-09-01T12:26:54.151Z,0.90
2022-09-01T12:29:21.448Z,1.00
2022-09-01T12:31:50.817Z,1.05
2022-09-01T12:34:40.655Z,1.00
2022-09-01T12:37:10.418Z,1.42
2022-09-01T12:39:41.478Z,1.20
2022-09-01T12:42:29.848Z,1.05
2022-09-01T12:45:09.775Z,1.13
2022-09-01T12:47:36.680Z,1.15
2022-09-01T12:50:16.565Z,1.02
2022-09-01T12:52:54.096Z,1.15
2022-09-01T12:58:22.124Z,0.98
2022-09-01T13:01:05.786Z,1.50
2022-09-01T13:03:35.767Z,1.58
2022-09-01T13:06:03.798Z,1.33
2022-09-01T13:08:35.042Z,1.13
2022-09-01T13:11:07.857Z,1.30
2022-09-01T13:13:37.908Z,1.10
2022-09-01T13:16:08.411Z,1.27
2022-09-01T13:19:10.377Z,1.27
2022-09-01T13:21:21.847Z,0.90
2022-09-01T13:23:50.762Z,0.90
2022-09-01T13:26:17.788Z,1.00
2022-09-01T13:28:45.909Z,1.20
2022-09-01T13:31:29.386Z,0.90
2022-09-01T13:34:20.423Z,1.10
2022-09-01T13:36:47.360Z,1.08
2022-09-01T13:39:16.994Z,1.20
2022-09-01T13:41:47.031Z,0.93
2022-09-01T13:44:13.863Z,1.40
2022-09-01T13:52:14.725Z,1.30
2022-09-01T13:54:44.160Z,1.03
2022-09-01T13:57:11.641Z,1.25
2022-09-01T13:59:39.030Z,1.20
2022-09-01T14:02:06.140Z,1.30
2022-09-01T14:04:33.000Z,1.20
2022-09-01T14:06:59.825Z,1.20
2022-09-01T14:09:26.757Z,1.20
2022-09-01T14:11:54.632Z,1.35
2022-09-01T14:14:21.962Z,1.05
2022-09-01T14:16:49.146Z,0.90
2022-09-01T14:19:15.872Z,0.80
2022-09-01T14:21:42.915Z,1.20
2022-09-01T14:24:09.643Z,1.00
2022-09-01T14:26:36.288Z,1.15
2022-09-01T14:29:02.996Z,1.77
2022-09-01T14:31:30.160Z,1.10
2022-09-01T14:33:56.999Z,1.17
2022-09-01T14:36:25.905Z,1.13
2022-09-01T14:38:53.528Z,1.08
2022-09-01T14:41:26.476Z,1.10
2022-09-01T14:43:57.602Z,0.90
2022-09-01T14:46:25.417Z,1.00
2022-09-01T14:48:52.222Z,1.42
2022-09-01T14:51:22.342Z,1.33
2022-09-01T14:53:49.736Z,1.45
2022-09-01T14:56:18.206Z,1.20
2022-09-01T14:58:49.338Z,1.00
2022-09-01T15:01:33.845Z,1.50
2022-09-01T15:04:01.792Z,1.15
2022-09-01T15:06:28.515Z,1.08
2022-09-01T15:08:55.163Z,1.37
2022-09-01T15:11:21.851Z,1.30
2022-09-01T15:13:52.497Z,1.00
2022-09-01T15:16:22.749Z,1.30
2022-09-01T15:18:49.999Z,1.20
2022-09-01T15:21:28.324Z,1.00
2022-09-01T15:23:55.111Z,1.15
2022-09-01T15:26:22.377Z,1.40
2022-09-01T15:28:50.015Z,1.20
2022-09-01T15:31:18.745Z,1.00
2022-09-01T15:33:56.647Z,1.07
2022-09-01T15:36:25.606Z,1.10
2022-09-01T15:38:52.831Z,0.88
2022-09-01T15:41:22.963Z,0.90
2022-09-01T15:43:50.075Z,0.90
2022-09-01T15:46:17.698Z,1.17
2022-09-01T15:48:44.800Z,1.48
2022-09-01T15:51:39.074Z,1.00
2022-09-01T15:54:09.019Z,1.13
2022-09-01T15:56:36.221Z,1.50
2022-09-01T15:59:04.966Z,1.07
2022-09-01T16:01:36.138Z,0.90
2022-09-01T16:04:05.038Z,1.30
2022-09-01T16:06:32.787Z,1.20
2022-09-01T16:08:59.604Z,1.30
2022-09-01T16:11:27.011Z,1.00
2022-09-01T16:13:54.570Z,1.27
2022-09-01T16:16:41.322Z,1.10
2022-09-01T16:19:24.411Z,1.05
2022-09-01T16:22:03.600Z,1.23
2022-09-01T16:24:30.579Z,1.33
2022-09-01T16:26:57.703Z,1.15
2022-09-01T16:29:51.691Z,1.23
2022-09-01T16:32:21.255Z,1.30
2022-09-01T16:34:48.789Z,1.35
2022-09-01T16:37:52.808Z,1.30
2022-09-01T16:40:46.578Z,1.25
2022-09-01T16:43:39.186Z,1.33
2022-09-01T16:46:42.230Z,1.00
2022-09-01T16:49:17.950Z,1.42
2022-09-01T16:52:00.029Z,1.00
2022-09-01T16:54:49.869Z,1.10
2022-09-01T16:57:32.489Z,1.15
2022-09-01T17:00:08.187Z,1.38
2022-09-01T17:03:07.943Z,1.33
2022-09-01T17:05:45.338Z,1.20
2022-09-01T17:08:22.894Z,1.13
2022-09-01T17:11:07.117Z,1.27
2022-09-01T17:13:42.587Z,1.00
2022-09-01T17:16:15.522Z,1.30
2022-09-01T17:18:52.716Z,1.60
2022-09-01T17:21:48.887Z,1.23
2022-09-01T17:24:38.667Z,1.50
2022-09-01T17:27:13.987Z,1.20
2022-09-01T17:29:46.923Z,1.10
2022-09-01T17:32:35.085Z,1.10
2022-09-01T17:35:29.770Z,1.13
2022-09-01T17:38:20.459Z,1.30
2022-09-01T17:41:05.624Z,1.20
2022-09-01T17:43:57.152Z,1.40
2022-09-01T17:46:45.832Z,1.50
2022-09-01T17:49:30.583Z,1.50
2022-09-01T17:52:07.744Z,1.10
2022-09-01T17:54:58.807Z,1.25
2022-09-01T17:57:28.549Z,1.67
2022-09-01T18:00:07.876Z,1.10
2022-09-01T18:03:14.699Z,1.00
2022-09-01T18:05:53.497Z,1.10
2022-09-01T18:08:30.931Z,1.38
2022-09-01T18:11:06.971Z,1.40
2022-09-01T18:13:58.593Z,1.48
2022-09-01T18:16:29.769Z,1.48
2022-09-01T18:19:03.818Z,1.13
2022-09-01T18:21:36.151Z,1.20
2022-09-01T18:24:18.235Z,1.15
2022-09-01T18:26:51.599Z,1.10
2022-09-01T18:29:19.284Z,1.13
2022-09-01T18:32:03.749Z,1.23
2022-09-01T18:34:51.291Z,1.40
2022-09-01T18:37:23.967Z,1.20
2022-09-01T18:40:02.702Z,1.10
2022-09-01T18:42:48.892Z,1.30
2022-09-01T18:45:30.798Z,1.13
2022-09-01T18:48:24.799Z,1.10
2022-09-01T18:51:21.572Z,1.50
2022-09-01T18:53:56.167Z,1.10
2022-09-01T18:56:42.928Z,1.15
2022-09-01T18:59:57.799Z,1.38
2022-09-01T19:02:37.921Z,1.30
2022-09-01T19:05:13.599Z,1.25
2022-09-01T19:07:59.558Z,1.40
2022-09-01T19:10:37.069Z,1.17
2022-09-01T19:13:35.607Z,1.05
2022-09-01T19:16:24.983Z,1.08
2022-09-01T19:19:03.672Z,1.02
2022-09-01T19:21:32.298Z,1.08
2022-09-01T19:24:05.191Z,1.00
2022-09-01T19:26:48.643Z,1.08
2022-09-01T19:29:35.044Z,1.23
2022-09-01T19:32:08.697Z,1.10
2022-09-01T19:34:43.908Z,1.33
2022-09-01T19:37:12.240Z,1.15
2022-09-01T19:39:44.436Z,0.98
2022-09-01T19:42:31.318Z,1.20
2022-09-01T19:45:25.354Z,1.25
2022-09-01T19:47:51.959Z,2.03
2022-09-01T19:50:31.148Z,1.10
2022-09-01T19:53:29.952Z,1.20
2022-09-01T19:56:05.370Z,1.05
2022-09-01T19:58:46.807Z,1.17
2022-09-01T20:01:26.036Z,1.02
2022-09-01T20:04:03.573Z,1.20
2022-09-01T20:06:34.540Z,1.00
2022-09-01T20:09:12.714Z,1.15
2022-09-01T20:11:59.900Z,1.20
2022-09-01T20:14:45.023Z,1.17
2022-09-01T20:17:26.091Z,1.30
2022-09-01T20:20:00.111Z,1.40
2022-09-01T20:22:35.640Z,1.42
2022-09-01T20:25:10.520Z,1.27
2022-09-01T20:27:43.049Z,1.13
2022-09-01T20:30:24.962Z,1.20
2022-09-01T20:32:57.881Z,1.00
2022-09-01T20:35:42.017Z,1.30
2022-09-01T20:38:41.818Z,1.40
2022-09-01T20:41:19.390Z,0.90
2022-09-01T20:43:51.668Z,1.00
2022-09-01T20:46:19.821Z,1.35
2022-09-01T20:48:46.877Z,0.90
2022-09-01T20:51:45.716Z,1.20
2022-09-01T20:54:41.604Z,1.00
2022-09-01T20:57:17.019Z,1.13
2022-09-01T20:59:54.765Z,0.93
2022-09-01T21:02:49.181Z,1.10
2022-09-01T21:05:26.202Z,1.30
2022-09-01T21:07:56.303Z,1.20
2022-09-01T21:10:31.824Z,0.98
2022-09-01T21:13:33.494Z,1.33
2022-09-01T21:16:16.552Z,1.00
2022-09-01T21:18:43.215Z,1.20
2022-09-01T21:21:29.818Z,1.27
2022-09-01T21:23:56.539Z,1.20
2022-09-01T21:26:23.244Z,1.30
2022-09-01T21:28:55.214Z,1.70
2022-09-01T21:31:24.075Z,1.57
2022-09-01T21:33:51.287Z,1.45
2022-09-01T21:36:18.019Z,1.20
2022-09-01T21:38:44.689Z,1.05
2022-09-01T21:41:13.245Z,1.30
2022-09-01T21:43:44.149Z,1.50
2022-09-01T21:46:13.507Z,1.40
2022-09-01T21:48:40.495Z,1.63
2022-09-01T21:51:07.247Z,1.27
2022-09-01T21:53:33.972Z,1.60
2022-09-01T21:56:00.996Z,1.70
2022-09-01T21:58:27.847Z,1.20
2022-09-01T22:00:55.609Z,1.52
2022-09-01T22:03:22.513Z,1.20
2022-09-01T22:05:50.497Z,0.93
2022-09-01T22:08:17.304Z,1.07
2022-09-01T22:10:49.040Z,1.30
2022-09-01T22:13:16.823Z,1.70
2022-09-01T22:15:46.648Z,1.40
2022-09-01T22:18:14.477Z,1.27
2022-09-01T22:20:42.049Z,1.33
2022-09-01T22:23:09.722Z,1.20
2022-09-01T22:25:42.811Z,1.13
2022-09-01T22:28:10.038Z,1.52
2022-09-01T22:30:36.826Z,1.10
2022-09-01T22:33:07.489Z,1.30
2022-09-01T22:35:34.201Z,1.23
2022-09-01T22:38:00.885Z,1.63
2022-09-01T22:40:27.563Z,1.08
2022-09-01T22:42:54.336Z,1.00
2022-09-01T22:45:21.034Z,1.00
2022-09-01T22:47:47.762Z,1.00
2022-09-01T22:50:14.519Z,0.90
2022-09-01T22:52:41.894Z,0.95
2022-09-01T22:55:10.137Z,1.10
2022-09-01T22:57:37.293Z,1.20
2022-09-01T23:00:09.689Z,1.40
2022-09-01T23:02:37.373Z,1.10
2022-09-01T23:05:06.036Z,0.85
2022-09-01T23:07:36.473Z,1.05
2022-09-01T23:10:08.185Z,1.10
2022-09-01T23:12:34.929Z,1.00
2022-09-01T23:15:01.636Z,0.90
2022-09-01T23:17:28.378Z,0.90
2022-09-01T23:19:55.189Z,0.90
2022-09-01T23:22:21.834Z,1.00
2022-09-01T23:24:48.474Z,0.95
2022-09-01T23:27:15.287Z,0.88
2022-09-01T23:29:41.959Z,1.23
2022-09-01T23:32:08.681Z,1.10
2022-09-01T23:34:35.399Z,1.00
2022-09-01T23:37:02.026Z,1.23
2022-09-01T23:39:28.970Z,0.90
2022-09-01T23:41:55.738Z,1.10
2022-09-01T23:44:23.468Z,1.13
2022-09-01T23:46:50.195Z,1.20
2022-09-01T23:49:18.434Z,1.10
2022-09-01T23:51:47.451Z,1.13
2022-09-01T23:54:14.743Z,1.10
2022-09-01T23:56:41.732Z,0.90
2022-09-01T23:59:08.471Z,1.23
